createdAt,value
2019-02-05T00:01:36.593Z,2.20
2019-02-05T00:08:03.822Z,2.20
2019-02-05T00:10:42.165Z,2.20
2019-02-05T00:13:14.801Z,2.20
2019-02-05T00:15:56.145Z,2.20
2019-02-05T00:22:26.885Z,2.20
2019-02-05T00:25:13.183Z,2.10
2019-02-05T00:28:28.838Z,2.10
2019-02-05T00:31:06.735Z,2.10
2019-02-05T00:34:05.881Z,2.10
2019-02-05T00:36:42.727Z,2.10
2019-02-05T00:39:16.003Z,2.10
2019-02-05T00:41:56.447Z,2.10
2019-02-05T00:44:36.547Z,2.10
2019-02-05T00:47:10.933Z,2.10
2019-02-05T00:49:48.457Z,2.10
2019-02-05T00:56:17.285Z,2.10
2019-02-05T00:59:00.277Z,2.10
2019-02-05T01:04:28.011Z,2.00
2019-02-05T01:07:23.985Z,2.10
2019-02-05T01:13:47.184Z,2.10
2019-02-05T01:16:28.370Z,2.00
2019-02-05T01:23:04.471Z,2.00
2019-02-05T01:25:43.192Z,2.00
2019-02-05T01:28:56.123Z,2.00
2019-02-05T01:31:41.384Z,2.00
2019-02-05T01:35:46.699Z,2.00
2019-02-05T01:37:41.206Z,2.00
2019-02-05T01:40:19.402Z,2.00
2019-02-05T01:42:50.916Z,2.00
2019-02-05T01:49:23.341Z,2.00
2019-02-05T01:58:43.143Z,1.90
2019-02-05T02:01:36.460Z,1.90
2019-02-05T02:04:10.749Z,1.90
2019-02-05T02:07:02.606Z,1.90
2019-02-05T02:09:43.903Z,1.90
2019-02-05T02:12:13.632Z,1.90
2019-02-05T02:14:49.420Z,1.90
2019-02-05T02:17:26.507Z,1.90
2019-02-05T02:24:17.862Z,1.90
2019-02-05T02:27:07.603Z,1.90
2019-02-05T02:29:45.842Z,1.90
2019-02-05T02:36:27.221Z,1.90
2019-02-05T03:10:19.756Z,1.80
2019-02-05T04:31:16.396Z,1.70
2019-02-05T05:29:43.944Z,1.70
2019-02-05T05:32:13.786Z,1.70
2019-02-05T05:34:43.371Z,1.70
2019-02-05T05:37:11.422Z,1.80
2019-02-05T05:39:41.442Z,1.70
2019-02-05T05:42:16.530Z,1.70
2019-02-05T05:44:46.205Z,1.70
2019-02-05T05:54:54.796Z,1.70
2019-02-05T05:57:26.993Z,1.70
2019-02-05T06:00:01.480Z,1.70
2019-02-05T06:02:31.101Z,1.70
2019-02-05T06:08:36.032Z,1.70
2019-02-05T06:11:23.839Z,1.70
2019-02-05T06:14:02.577Z,1.70
2019-02-05T06:16:35.551Z,1.70
2019-02-05T06:19:07.720Z,1.70
2019-02-05T06:21:37.057Z,1.70
2019-02-05T06:24:09.350Z,1.70
2019-02-05T06:26:45.369Z,1.70
2019-02-05T06:29:16.717Z,1.70
2019-02-05T06:37:17.707Z,1.70
2019-02-05T06:39:18.492Z,1.70
2019-02-05T06:41:48.041Z,1.70
2019-02-05T06:44:19.046Z,1.70
2019-02-05T06:46:56.072Z,1.70
2019-02-05T06:49:26.129Z,1.70
2019-02-05T06:52:17.796Z,1.70
2019-02-05T06:54:47.165Z,1.70
2019-02-05T06:57:16.458Z,1.70
2019-02-05T07:00:42.915Z,1.70
2019-02-05T07:03:15.115Z,1.70
2019-02-05T07:05:56.213Z,1.70
2019-02-05T07:08:26.105Z,1.70
2019-02-05T07:10:55.397Z,1.70
2019-02-05T07:13:43.080Z,1.70
2019-02-05T07:19:53.824Z,1.70
2019-02-05T07:22:23.200Z,1.70
2019-02-05T07:24:53.133Z,1.70
2019-02-05T07:27:23.232Z,1.70
2019-02-05T07:29:52.882Z,1.70
2019-02-05T07:32:22.349Z,1.70
2019-02-05T07:34:52.089Z,1.70
2019-02-05T07:37:25.609Z,1.70
2019-02-05T07:39:55.139Z,1.70
2019-02-05T07:42:24.555Z,1.70
2019-02-05T07:44:54.017Z,1.70
2019-02-05T07:47:56.012Z,1.70
2019-02-05T07:50:26.321Z,1.70
2019-02-05T07:52:55.920Z,1.70
2019-02-05T07:55:25.511Z,1.70
2019-02-05T07:57:54.768Z,1.80
2019-02-05T08:00:25.933Z,1.80
2019-02-05T08:02:55.611Z,1.80
2019-02-05T08:05:28.331Z,1.80
2019-02-05T08:08:19.248Z,1.80
2019-02-05T08:10:48.392Z,1.80
2019-02-05T08:13:18.112Z,1.80
2019-02-05T08:15:47.522Z,1.90
2019-02-05T08:18:22.100Z,1.90
2019-02-05T08:21:00.639Z,1.90
2019-02-05T08:23:30.076Z,1.90
2019-02-05T08:25:59.317Z,1.90
2019-02-05T08:28:28.395Z,1.90
2019-02-05T08:30:57.355Z,1.90
2019-02-05T08:33:27.396Z,2.00
2019-02-05T08:35:56.439Z,2.00
2019-02-05T08:38:26.039Z,2.00
2019-02-05T08:41:09.310Z,2.00
2019-02-05T08:43:43.415Z,2.10
2019-02-05T08:46:14.367Z,2.10
2019-02-05T08:48:44.398Z,2.10
2019-02-05T08:51:17.928Z,2.10
2019-02-05T08:53:47.418Z,2.10
2019-02-05T08:56:17.069Z,2.20
2019-02-05T08:58:46.434Z,2.20
2019-02-05T09:01:20.353Z,2.20
2019-02-05T09:03:50.407Z,2.20
2019-02-05T09:06:41.944Z,2.30
2019-02-05T09:09:14.710Z,2.20
2019-02-05T09:11:44.037Z,2.30
2019-02-05T09:14:13.452Z,2.30
2019-02-05T09:16:43.263Z,2.30
2019-02-05T09:19:12.550Z,2.30
2019-02-05T09:21:41.782Z,2.30
2019-02-05T09:24:11.453Z,2.30
2019-02-05T09:26:40.590Z,2.30
2019-02-05T09:29:40.372Z,2.40
2019-02-05T09:32:09.707Z,2.40
2019-02-05T09:34:40.858Z,2.40
2019-02-05T09:37:09.993Z,2.40
2019-02-05T09:39:39.112Z,2.40
2019-02-05T09:42:08.493Z,2.40
2019-02-05T09:44:37.667Z,2.50
2019-02-05T09:47:06.702Z,2.50
2019-02-05T09:49:35.841Z,2.50
2019-02-05T09:52:05.317Z,2.50
2019-02-05T09:54:34.483Z,2.50
2019-02-05T09:57:03.582Z,2.50
2019-02-05T09:59:44.879Z,2.60
2019-02-05T10:02:04.369Z,2.60
2019-02-05T10:04:33.419Z,2.60
2019-02-05T10:07:02.447Z,2.60
2019-02-05T10:09:31.653Z,2.60
2019-02-05T10:12:00.932Z,2.70
2019-02-05T10:14:30.681Z,2.70
2019-02-05T10:16:59.738Z,2.70
2019-02-05T10:19:29.099Z,2.80
2019-02-05T10:21:58.559Z,2.80
2019-02-05T10:24:27.883Z,2.80
2019-02-05T10:27:04.983Z,2.80
2019-02-05T10:29:34.619Z,2.80
2019-02-05T10:32:05.521Z,2.80
2019-02-05T10:34:34.587Z,2.90
2019-02-05T10:37:04.014Z,2.90
2019-02-05T10:39:33.492Z,2.90
2019-02-05T10:42:02.849Z,2.90
2019-02-05T10:44:32.164Z,2.90
2019-02-05T10:47:56.167Z,3.00
2019-02-05T10:50:25.717Z,3.00
2019-02-05T10:52:58.040Z,3.00
2019-02-05T10:55:27.494Z,3.10
2019-02-05T10:57:56.623Z,3.10
2019-02-05T11:00:27.996Z,3.10
2019-02-05T11:03:07.737Z,3.10
2019-02-05T11:05:37.788Z,3.10
2019-02-05T11:08:10.316Z,3.10
2019-02-05T11:10:39.438Z,3.10
2019-02-05T11:13:08.719Z,3.20
2019-02-05T11:15:51.945Z,3.20
2019-02-05T11:18:20.933Z,3.20
2019-02-05T11:20:50.498Z,3.20
2019-02-05T11:23:43.880Z,3.20
2019-02-05T11:26:13.230Z,3.30
2019-02-05T11:28:42.418Z,3.30
2019-02-05T11:31:11.853Z,3.30
2019-02-05T11:33:40.999Z,3.30
2019-02-05T11:36:26.252Z,3.30
2019-02-05T11:38:55.242Z,3.40
2019-02-05T11:41:24.321Z,3.40
2019-02-05T11:44:11.741Z,3.40
2019-02-05T11:46:40.719Z,3.50
2019-02-05T11:49:10.672Z,3.50
2019-02-05T11:51:39.957Z,3.50
2019-02-05T11:54:09.399Z,3.50
2019-02-05T11:56:38.947Z,3.60
2019-02-05T11:59:08.054Z,3.60
2019-02-05T12:01:39.287Z,3.60
2019-02-05T12:04:08.087Z,3.60
2019-02-05T12:06:37.293Z,3.60
2019-02-05T12:09:19.119Z,3.60
2019-02-05T12:11:48.396Z,3.70
2019-02-05T12:16:53.661Z,3.70
2019-02-05T12:19:22.752Z,3.70
2019-02-05T12:22:02.237Z,3.80
2019-02-05T12:24:31.356Z,3.80
2019-02-05T12:27:00.277Z,3.80
2019-02-05T12:29:29.698Z,3.80
2019-02-05T12:31:58.845Z,3.90
2019-02-05T12:34:28.035Z,3.90
2019-02-05T12:37:00.166Z,3.90
2019-02-05T12:39:29.246Z,3.90
2019-02-05T12:42:00.631Z,4.00
2019-02-05T12:44:29.934Z,4.00
2019-02-05T12:46:59.224Z,4.00
2019-02-05T12:49:30.302Z,4.00
2019-02-05T12:51:59.562Z,4.00
2019-02-05T12:54:28.834Z,4.00
2019-02-05T12:56:58.009Z,4.00
2019-02-05T12:59:27.054Z,4.00
2019-02-05T13:01:56.340Z,4.00
2019-02-05T13:04:25.657Z,4.00
2019-02-05T13:06:55.030Z,4.00
2019-02-05T13:09:24.225Z,4.00
2019-02-05T13:11:53.299Z,4.00
2019-02-05T13:14:22.242Z,4.00
2019-02-05T13:16:51.950Z,4.00
2019-02-05T13:19:27.422Z,4.00
2019-02-05T13:24:31.674Z,4.10
2019-02-05T13:27:00.986Z,4.10
2019-02-05T13:29:29.882Z,4.10
2019-02-05T13:34:33.396Z,4.20
2019-02-05T13:37:02.362Z,4.20
2019-02-05T13:39:31.617Z,4.20
2019-02-05T13:42:01.650Z,4.20
2019-02-05T13:44:30.454Z,4.20
2019-02-05T13:46:59.954Z,4.20
2019-02-05T13:50:03.552Z,4.20
2019-02-05T13:52:32.668Z,4.20
2019-02-05T13:55:02.069Z,4.20
2019-02-05T13:57:31.367Z,4.20
2019-02-05T14:00:00.481Z,4.20
2019-02-05T14:02:29.649Z,4.20
2019-02-05T14:04:58.567Z,4.20
2019-02-05T14:07:27.673Z,4.20
2019-02-05T14:10:03.355Z,4.20
2019-02-05T14:12:33.415Z,4.20
2019-02-05T14:15:02.420Z,4.20
2019-02-05T14:17:31.793Z,4.20
2019-02-05T14:20:03.334Z,4.20
2019-02-05T14:22:32.535Z,4.20
2019-02-05T14:25:01.860Z,4.30
2019-02-05T14:27:32.530Z,4.30
2019-02-05T14:30:18.627Z,4.20
2019-02-05T14:32:48.888Z,4.20
2019-02-05T14:35:18.443Z,4.20
2019-02-05T14:37:47.517Z,4.20
2019-02-05T14:40:34.626Z,4.20
2019-02-05T14:43:03.958Z,4.20
2019-02-05T14:45:40.085Z,4.20
2019-02-05T14:48:09.954Z,4.20
2019-02-05T14:50:42.133Z,4.20
2019-02-05T14:53:12.083Z,4.20
2019-02-05T14:55:41.828Z,4.20
2019-02-05T14:58:38.421Z,4.20
2019-02-05T15:01:08.469Z,4.20
2019-02-05T15:03:37.998Z,4.20
2019-02-05T15:06:15.708Z,4.30
2019-02-05T15:08:50.810Z,4.30
2019-02-05T15:11:22.038Z,4.30
2019-02-05T15:13:52.617Z,4.30
2019-02-05T15:16:22.318Z,4.30
2019-02-05T15:22:54.211Z,4.20
2019-02-05T15:27:58.722Z,4.20
2019-02-05T15:30:36.335Z,4.20
2019-02-05T15:33:25.095Z,4.20
2019-02-05T15:35:57.246Z,4.20
2019-02-05T15:38:26.279Z,4.20
2019-02-05T15:40:55.503Z,4.20
2019-02-05T15:43:24.776Z,4.20
2019-02-05T15:46:02.163Z,4.10
2019-02-05T15:48:31.015Z,4.20
2019-02-05T15:51:00.047Z,4.20
2019-02-05T15:53:29.324Z,4.10
2019-02-05T15:55:58.450Z,4.10
2019-02-05T15:58:30.113Z,4.10
2019-02-05T16:00:59.412Z,4.10
2019-02-05T16:03:28.679Z,4.10
2019-02-05T16:06:05.440Z,4.10
2019-02-05T16:08:34.941Z,4.10
2019-02-05T16:11:04.476Z,4.00
2019-02-05T16:13:34.060Z,4.00
2019-02-05T16:16:04.823Z,4.00
2019-02-05T16:18:33.830Z,4.00
2019-02-05T16:21:06.527Z,3.90
2019-02-05T16:23:39.441Z,3.90
2019-02-05T16:26:08.561Z,3.90
2019-02-05T16:28:40.086Z,3.90
2019-02-05T16:31:09.278Z,3.90
2019-02-05T16:33:57.508Z,3.90
2019-02-05T16:36:26.710Z,3.80
2019-02-05T16:38:55.756Z,3.80
2019-02-05T16:41:24.798Z,3.80
2019-02-05T16:43:53.864Z,3.80
2019-02-05T16:46:23.255Z,3.80
2019-02-05T16:48:55.578Z,3.80
2019-02-05T16:51:24.917Z,3.70
2019-02-05T16:53:54.172Z,3.70
2019-02-05T16:56:23.868Z,3.70
2019-02-05T16:59:11.360Z,3.70
2019-02-05T17:01:40.427Z,3.60
2019-02-05T17:04:09.740Z,3.70
2019-02-05T17:06:38.818Z,3.60
2019-02-05T17:09:14.965Z,3.60
2019-02-05T17:11:45.558Z,3.60
2019-02-05T17:14:14.857Z,3.60
2019-02-05T17:16:44.177Z,3.60
2019-02-05T17:19:15.293Z,3.60
2019-02-05T17:21:44.457Z,3.60
2019-02-05T17:24:13.883Z,3.60
2019-02-05T17:26:42.960Z,3.50
2019-02-05T17:29:12.050Z,3.50
2019-02-05T17:31:41.176Z,3.50
2019-02-05T17:34:10.674Z,3.50
2019-02-05T17:36:40.036Z,3.40
2019-02-05T17:39:12.352Z,3.40
2019-02-05T17:41:41.446Z,3.40
2019-02-05T17:44:10.983Z,3.30
2019-02-05T17:46:40.480Z,3.30
2019-02-05T17:49:12.165Z,3.30
2019-02-05T17:51:41.217Z,3.30
2019-02-05T17:54:10.644Z,3.30
2019-02-05T17:56:39.750Z,3.20
2019-02-05T17:59:09.059Z,3.20
2019-02-05T18:01:40.205Z,3.20
2019-02-05T18:04:09.155Z,3.20
2019-02-05T18:06:40.143Z,3.20
2019-02-05T18:09:10.538Z,3.20
2019-02-05T18:13:06.048Z,3.10
2019-02-05T18:16:01.568Z,3.10
2019-02-05T18:18:45.005Z,3.10
2019-02-05T18:21:58.072Z,3.10
2019-02-05T18:24:41.235Z,3.10
2019-02-05T18:27:52.960Z,3.10
2019-02-05T18:30:27.502Z,3.00
2019-02-05T18:33:04.355Z,3.00
2019-02-05T18:35:27.965Z,2.90
2019-02-05T18:37:57.728Z,2.90
2019-02-05T18:40:27.040Z,2.90
2019-02-05T18:43:04.268Z,2.80
2019-02-05T18:45:33.491Z,2.80
2019-02-05T18:48:02.925Z,2.80
2019-02-05T18:50:32.219Z,2.70
2019-02-05T18:53:02.718Z,2.70
2019-02-05T18:55:32.421Z,2.70
2019-02-05T18:58:08.907Z,2.60
2019-02-05T19:00:34.870Z,2.60
2019-02-05T19:03:14.939Z,2.60
2019-02-05T19:05:42.204Z,2.50
2019-02-05T19:08:11.459Z,2.50
2019-02-05T19:10:40.694Z,2.40
2019-02-05T19:13:10.004Z,2.40
2019-02-05T19:15:39.628Z,2.30
2019-02-05T19:18:09.705Z,2.30
2019-02-05T19:24:47.823Z,2.30
2019-02-05T19:31:01.379Z,2.30
2019-02-05T19:33:30.691Z,2.30
2019-02-05T19:36:01.028Z,2.30
2019-02-05T19:38:31.735Z,2.30
2019-02-05T19:41:01.909Z,2.30
2019-02-05T19:43:31.397Z,2.30
2019-02-05T19:46:15.403Z,2.30
2019-02-05T19:49:21.443Z,2.30
2019-02-05T19:51:43.654Z,2.30
2019-02-05T19:54:13.189Z,2.20
2019-02-05T19:57:17.052Z,2.20
2019-02-05T19:59:46.530Z,2.20
2019-02-05T20:02:16.243Z,2.20
2019-02-05T20:04:45.432Z,2.20
2019-02-05T20:07:17.264Z,2.20
2019-02-05T20:13:27.686Z,2.20
2019-02-05T20:15:57.136Z,2.20
2019-02-05T20:18:56.645Z,2.20
2019-02-05T20:21:25.981Z,2.10
2019-02-05T20:23:55.071Z,2.10
2019-02-05T20:30:07.273Z,2.10
2019-02-05T20:32:36.391Z,2.10
2019-02-05T20:35:06.306Z,2.00
2019-02-05T20:37:40.799Z,2.00
2019-02-05T20:40:13.066Z,2.00
2019-02-05T20:42:42.735Z,1.90
2019-02-05T20:45:12.315Z,1.90
2019-02-05T20:47:41.716Z,1.90
2019-02-05T20:52:47.349Z,1.80
2019-02-05T20:55:25.119Z,1.70
2019-02-05T20:57:54.657Z,1.70
2019-02-05T21:00:23.897Z,1.60
2019-02-05T21:02:53.328Z,1.60
2019-02-05T21:05:22.750Z,1.60
2019-02-05T21:07:52.480Z,1.60
2019-02-05T21:10:22.784Z,1.50
2019-02-05T21:13:05.141Z,1.50
2019-02-05T21:15:35.115Z,1.40
2019-02-05T21:18:04.652Z,1.40
2019-02-05T21:20:34.113Z,1.30
2019-02-05T21:23:03.829Z,1.30
2019-02-05T21:25:35.304Z,1.30
2019-02-05T21:28:04.860Z,1.20
2019-02-05T21:30:33.978Z,1.20
2019-02-05T21:33:03.191Z,1.10
2019-02-05T21:35:32.493Z,1.10
2019-02-05T21:38:01.873Z,1.10
2019-02-05T21:40:31.730Z,1.00
2019-02-05T21:43:24.379Z,1.00
2019-02-05T21:45:53.579Z,0.90
2019-02-05T21:48:22.861Z,0.90
2019-02-05T21:50:52.117Z,0.90
2019-02-05T21:53:21.272Z,0.80
2019-02-05T21:55:50.663Z,0.80
2019-02-05T21:58:20.149Z,0.80
2019-02-05T22:00:49.377Z,0.80
2019-02-05T22:03:20.310Z,0.70
2019-02-05T22:05:49.905Z,0.70
2019-02-05T22:08:19.138Z,0.70
2019-02-05T22:10:48.469Z,0.70
2019-02-05T22:13:17.938Z,0.70
2019-02-05T22:18:33.433Z,0.70
2019-02-05T22:21:05.194Z,0.70
2019-02-05T22:23:34.840Z,0.70
2019-02-05T22:26:04.648Z,0.60
2019-02-05T22:28:33.886Z,0.60
2019-02-05T22:31:03.097Z,0.60
2019-02-05T22:33:32.564Z,0.60
2019-02-05T22:36:02.033Z,0.60
2019-02-05T22:38:31.301Z,0.60
2019-02-05T22:41:00.544Z,0.60
2019-02-05T22:43:29.773Z,0.60
2019-02-05T22:45:59.570Z,0.60
2019-02-05T22:48:29.231Z,0.70
2019-02-05T22:51:10.573Z,0.70
2019-02-05T22:53:39.690Z,0.70
2019-02-05T22:56:08.966Z,0.80
2019-02-05T22:58:38.201Z,0.80
2019-02-05T23:01:42.206Z,0.80
2019-02-05T23:04:17.786Z,0.80
2019-02-05T23:06:57.135Z,0.80
2019-02-05T23:09:40.146Z,0.80
2019-02-05T23:12:14.285Z,0.90
2019-02-05T23:14:57.575Z,0.90
2019-02-05T23:17:26.718Z,0.90
2019-02-05T23:19:55.817Z,0.90
2019-02-05T23:22:24.959Z,0.90
2019-02-05T23:25:00.333Z,0.90
2019-02-05T23:27:29.767Z,0.90
2019-02-05T23:29:58.918Z,0.90
2019-02-05T23:32:28.087Z,0.90
2019-02-05T23:35:02.241Z,0.80
2019-02-05T23:37:28.129Z,0.80
2019-02-05T23:39:57.348Z,0.80
2019-02-05T23:42:26.582Z,0.80
2019-02-05T23:44:55.771Z,0.80
2019-02-05T23:47:25.131Z,0.80
2019-02-05T23:50:02.503Z,0.70
2019-02-05T23:52:31.676Z,0.70
2019-02-05T23:55:01.221Z,0.60
2019-02-05T23:57:30.447Z,0.50
